sensor_id;sensor_type;location;lat;lon;timestamp;P1;durP1;ratioP1;P2;durP2;ratioP2
73515;SDS011;61763;51.416;5.442;2023-04-15T00:00:15;4.78;;;1.73;;
73515;SDS011;61763;51.416;5.442;2023-04-15T00:02:41;8.52;;;1.55;;
73515;SDS011;61763;51.416;5.442;2023-04-15T00:05:08;6.55;;;1.88;;
73515;SDS011;61763;51.416;5.442;2023-04-15T00:07:34;4.00;;;1.65;;
73515;SDS011;61763;51.416;5.442;2023-04-15T00:10:01;6.53;;;2.10;;
73515;SDS011;61763;51.416;5.442;2023-04-15T00:12:26;8.50;;;2.08;;
73515;SDS011;61763;51.416;5.442;2023-04-15T00:14:52;5.20;;;1.77;;
73515;SDS011;61763;51.416;5.442;2023-04-15T00:17:18;4.10;;;1.50;;
73515;SDS011;61763;51.416;5.442;2023-04-15T00:19:44;5.38;;;1.63;;
73515;SDS011;61763;51.416;5.442;2023-04-15T00:22:09;6.03;;;1.90;;
73515;SDS011;61763;51.416;5.442;2023-04-15T00:24:36;6.15;;;1.92;;
73515;SDS011;61763;51.416;5.442;2023-04-15T00:27:01;6.55;;;2.28;;
73515;SDS011;61763;51.416;5.442;2023-04-15T00:29:27;8.52;;;2.17;;
73515;SDS011;61763;51.416;5.442;2023-04-15T00:31:54;6.70;;;2.13;;
73515;SDS011;61763;51.416;5.442;2023-04-15T00:34:21;5.05;;;1.67;;
73515;SDS011;61763;51.416;5.442;2023-04-15T00:36:47;5.88;;;2.25;;
73515;SDS011;61763;51.416;5.442;2023-04-15T00:39:12;9.43;;;2.30;;
73515;SDS011;61763;51.416;5.442;2023-04-15T00:41:38;6.93;;;2.10;;
73515;SDS011;61763;51.416;5.442;2023-04-15T00:44:04;8.10;;;2.13;;
73515;SDS011;61763;51.416;5.442;2023-04-15T00:46:30;7.75;;;1.98;;
73515;SDS011;61763;51.416;5.442;2023-04-15T00:48:59;6.82;;;2.28;;
73515;SDS011;61763;51.416;5.442;2023-04-15T00:51:25;6.25;;;2.10;;
73515;SDS011;61763;51.416;5.442;2023-04-15T00:53:50;8.18;;;3.08;;
73515;SDS011;61763;51.416;5.442;2023-04-15T00:56:16;8.45;;;2.60;;
73515;SDS011;61763;51.416;5.442;2023-04-15T00:58:41;9.55;;;2.90;;
73515;SDS011;61763;51.416;5.442;2023-04-15T01:01:06;9.93;;;2.92;;
73515;SDS011;61763;51.416;5.442;2023-04-15T01:03:32;7.37;;;2.63;;
73515;SDS011;61763;51.416;5.442;2023-04-15T01:05:57;5.85;;;2.53;;
73515;SDS011;61763;51.416;5.442;2023-04-15T01:08:27;7.45;;;3.33;;
73515;SDS011;61763;51.416;5.442;2023-04-15T01:10:54;9.00;;;3.15;;
73515;SDS011;61763;51.416;5.442;2023-04-15T01:13:21;9.75;;;3.08;;
73515;SDS011;61763;51.416;5.442;2023-04-15T01:15:47;10.00;;;3.30;;
73515;SDS011;61763;51.416;5.442;2023-04-15T01:18:13;6.30;;;3.03;;
73515;SDS011;61763;51.416;5.442;2023-04-15T01:20:39;9.65;;;3.30;;
73515;SDS011;61763;51.416;5.442;2023-04-15T01:23:06;9.05;;;3.25;;
73515;SDS011;61763;51.416;5.442;2023-04-15T01:25:33;15.23;;;4.47;;
73515;SDS011;61763;51.416;5.442;2023-04-15T01:27:59;9.27;;;3.50;;
73515;SDS011;61763;51.416;5.442;2023-04-15T01:30:27;10.38;;;4.15;;
73515;SDS011;61763;51.416;5.442;2023-04-15T01:32:53;7.22;;;3.35;;
73515;SDS011;61763;51.416;5.442;2023-04-15T01:35:19;9.68;;;3.70;;
73515;SDS011;61763;51.416;5.442;2023-04-15T01:37:45;9.57;;;3.72;;
73515;SDS011;61763;51.416;5.442;2023-04-15T01:40:11;7.20;;;3.03;;
73515;SDS011;61763;51.416;5.442;2023-04-15T01:42:37;6.97;;;3.83;;
73515;SDS011;61763;51.416;5.442;2023-04-15T01:45:03;7.78;;;3.78;;
73515;SDS011;61763;51.416;5.442;2023-04-15T01:47:30;11.13;;;4.57;;
73515;SDS011;61763;51.416;5.442;2023-04-15T01:49:56;9.90;;;4.35;;
73515;SDS011;61763;51.416;5.442;2023-04-15T01:52:21;11.32;;;4.70;;
73515;SDS011;61763;51.416;5.442;2023-04-15T01:54:47;11.20;;;4.85;;
73515;SDS011;61763;51.416;5.442;2023-04-15T01:57:12;10.57;;;3.95;;
73515;SDS011;61763;51.416;5.442;2023-04-15T01:59:38;12.68;;;4.75;;
73515;SDS011;61763;51.416;5.442;2023-04-15T02:02:03;9.32;;;4.65;;
73515;SDS011;61763;51.416;5.442;2023-04-15T02:04:29;10.82;;;4.55;;
73515;SDS011;61763;51.416;5.442;2023-04-15T02:06:54;11.35;;;4.28;;
73515;SDS011;61763;51.416;5.442;2023-04-15T02:09:20;11.85;;;4.50;;
73515;SDS011;61763;51.416;5.442;2023-04-15T02:11:46;11.57;;;4.50;;
73515;SDS011;61763;51.416;5.442;2023-04-15T02:14:11;12.30;;;5.28;;
73515;SDS011;61763;51.416;5.442;2023-04-15T02:16:37;9.73;;;4.70;;
73515;SDS011;61763;51.416;5.442;2023-04-15T02:19:02;13.20;;;4.57;;
73515;SDS011;61763;51.416;5.442;2023-04-15T02:21:28;8.15;;;4.57;;
73515;SDS011;61763;51.416;5.442;2023-04-15T02:23:54;9.35;;;4.38;;
73515;SDS011;61763;51.416;5.442;2023-04-15T02:26:20;9.75;;;4.47;;
73515;SDS011;61763;51.416;5.442;2023-04-15T02:28:46;13.18;;;5.28;;
73515;SDS011;61763;51.416;5.442;2023-04-15T02:31:13;12.73;;;5.85;;
73515;SDS011;61763;51.416;5.442;2023-04-15T02:33:38;14.70;;;5.75;;
73515;SDS011;61763;51.416;5.442;2023-04-15T02:36:04;9.90;;;4.82;;
73515;SDS011;61763;51.416;5.442;2023-04-15T02:38:31;10.55;;;5.05;;
73515;SDS011;61763;51.416;5.442;2023-04-15T02:40:57;12.38;;;4.82;;
73515;SDS011;61763;51.416;5.442;2023-04-15T02:43:22;12.68;;;5.18;;
73515;SDS011;61763;51.416;5.442;2023-04-15T02:45:48;9.63;;;5.22;;
73515;SDS011;61763;51.416;5.442;2023-04-15T02:48:13;13.98;;;6.22;;
73515;SDS011;61763;51.416;5.442;2023-04-15T02:50:40;12.90;;;5.40;;
73515;SDS011;61763;51.416;5.442;2023-04-15T02:53:06;12.00;;;4.80;;
73515;SDS011;61763;51.416;5.442;2023-04-15T02:55:32;11.45;;;4.43;;
73515;SDS011;61763;51.416;5.442;2023-04-15T02:57:57;9.32;;;4.97;;
73515;SDS011;61763;51.416;5.442;2023-04-15T03:00:24;10.68;;;5.10;;
73515;SDS011;61763;51.416;5.442;2023-04-15T03:02:56;12.10;;;4.78;;
73515;SDS011;61763;51.416;5.442;2023-04-15T03:05:22;11.90;;;5.18;;
73515;SDS011;61763;51.416;5.442;2023-04-15T03:07:51;13.38;;;5.80;;
73515;SDS011;61763;51.416;5.442;2023-04-15T03:10:16;12.88;;;5.13;;
73515;SDS011;61763;51.416;5.442;2023-04-15T03:12:42;11.95;;;5.25;;
73515;SDS011;61763;51.416;5.442;2023-04-15T03:15:08;8.70;;;5.18;;
73515;SDS011;61763;51.416;5.442;2023-04-15T03:17:33;10.63;;;4.63;;
73515;SDS011;61763;51.416;5.442;2023-04-15T03:20:02;13.48;;;5.30;;
73515;SDS011;61763;51.416;5.442;2023-04-15T03:22:30;13.77;;;5.82;;
73515;SDS011;61763;51.416;5.442;2023-04-15T03:24:56;11.57;;;6.05;;
73515;SDS011;61763;51.416;5.442;2023-04-15T03:27:21;11.00;;;5.35;;
73515;SDS011;61763;51.416;5.442;2023-04-15T03:29:47;14.90;;;6.60;;
73515;SDS011;61763;51.416;5.442;2023-04-15T03:32:13;12.88;;;6.15;;
73515;SDS011;61763;51.416;5.442;2023-04-15T03:34:39;15.00;;;5.72;;
73515;SDS011;61763;51.416;5.442;2023-04-15T03:37:06;14.20;;;5.75;;
73515;SDS011;61763;51.416;5.442;2023-04-15T03:39:31;14.35;;;6.35;;
73515;SDS011;61763;51.416;5.442;2023-04-15T03:41:57;11.80;;;6.10;;
73515;SDS011;61763;51.416;5.442;2023-04-15T03:44:23;12.75;;;5.72;;
73515;SDS011;61763;51.416;5.442;2023-04-15T03:46:50;11.73;;;6.28;;
73515;SDS011;61763;51.416;5.442;2023-04-15T03:49:15;10.43;;;5.35;;
73515;SDS011;61763;51.416;5.442;2023-04-15T03:51:41;12.15;;;6.35;;
73515;SDS011;61763;51.416;5.442;2023-04-15T03:54:07;13.57;;;6.77;;
73515;SDS011;61763;51.416;5.442;2023-04-15T03:56:32;12.88;;;6.05;;
73515;SDS011;61763;51.416;5.442;2023-04-15T03:58:57;10.77;;;5.50;;
73515;SDS011;61763;51.416;5.442;2023-04-15T04:01:23;10.63;;;5.90;;
73515;SDS011;61763;51.416;5.442;2023-04-15T04:03:48;10.98;;;5.22;;
73515;SDS011;61763;51.416;5.442;2023-04-15T04:06:13;9.35;;;5.28;;
73515;SDS011;61763;51.416;5.442;2023-04-15T04:08:39;10.60;;;6.07;;
73515;SDS011;61763;51.416;5.442;2023-04-15T04:11:04;15.75;;;5.75;;
73515;SDS011;61763;51.416;5.442;2023-04-15T04:13:30;9.93;;;5.38;;
73515;SDS011;61763;51.416;5.442;2023-04-15T04:15:56;9.60;;;5.22;;
73515;SDS011;61763;51.416;5.442;2023-04-15T04:18:21;14.90;;;5.18;;
73515;SDS011;61763;51.416;5.442;2023-04-15T04:20:46;10.95;;;5.22;;
73515;SDS011;61763;51.416;5.442;2023-04-15T04:23:12;12.40;;;5.15;;
73515;SDS011;61763;51.416;5.442;2023-04-15T04:25:37;12.48;;;5.07;;
73515;SDS011;61763;51.416;5.442;2023-04-15T04:28:03;11.15;;;5.28;;
73515;SDS011;61763;51.416;5.442;2023-04-15T04:30:28;14.75;;;6.35;;
73515;SDS011;61763;51.416;5.442;2023-04-15T04:32:54;11.25;;;5.65;;
73515;SDS011;61763;51.416;5.442;2023-04-15T04:35:19;7.85;;;4.07;;
73515;SDS011;61763;51.416;5.442;2023-04-15T04:37:46;10.63;;;4.95;;
73515;SDS011;61763;51.416;5.442;2023-04-15T04:40:12;10.75;;;5.90;;
73515;SDS011;61763;51.416;5.442;2023-04-15T04:45:06;10.40;;;4.65;;
73515;SDS011;61763;51.416;5.442;2023-04-15T04:47:32;13.80;;;4.90;;
73515;SDS011;61763;51.416;5.442;2023-04-15T04:49:58;12.43;;;5.53;;
73515;SDS011;61763;51.416;5.442;2023-04-15T04:52:23;9.95;;;5.55;;
73515;SDS011;61763;51.416;5.442;2023-04-15T04:54:49;13.50;;;5.60;;
73515;SDS011;61763;51.416;5.442;2023-04-15T04:57:14;11.88;;;5.65;;
73515;SDS011;61763;51.416;5.442;2023-04-15T04:59:40;10.70;;;5.22;;
73515;SDS011;61763;51.416;5.442;2023-04-15T05:02:05;12.70;;;6.07;;
73515;SDS011;61763;51.416;5.442;2023-04-15T05:04:31;13.30;;;6.28;;
73515;SDS011;61763;51.416;5.442;2023-04-15T05:06:56;12.57;;;5.57;;
73515;SDS011;61763;51.416;5.442;2023-04-15T05:09:23;13.38;;;6.20;;
73515;SDS011;61763;51.416;5.442;2023-04-15T05:11:48;13.07;;;5.45;;
73515;SDS011;61763;51.416;5.442;2023-04-15T05:14:13;11.03;;;5.13;;
73515;SDS011;61763;51.416;5.442;2023-04-15T05:16:39;11.90;;;5.55;;
73515;SDS011;61763;51.416;5.442;2023-04-15T05:19:04;9.60;;;5.15;;
73515;SDS011;61763;51.416;5.442;2023-04-15T05:21:30;13.00;;;4.88;;
73515;SDS011;61763;51.416;5.442;2023-04-15T05:23:55;11.40;;;5.40;;
73515;SDS011;61763;51.416;5.442;2023-04-15T05:26:21;11.82;;;5.20;;
73515;SDS011;61763;51.416;5.442;2023-04-15T05:28:46;9.52;;;5.22;;
73515;SDS011;61763;51.416;5.442;2023-04-15T05:31:12;14.27;;;4.95;;
73515;SDS011;61763;51.416;5.442;2023-04-15T05:33:38;12.50;;;5.82;;
73515;SDS011;61763;51.416;5.442;2023-04-15T05:36:04;9.95;;;4.95;;
73515;SDS011;61763;51.416;5.442;2023-04-15T05:38:30;10.32;;;5.47;;
73515;SDS011;61763;51.416;5.442;2023-04-15T05:40:55;12.95;;;6.00;;
73515;SDS011;61763;51.416;5.442;2023-04-15T05:43:25;12.60;;;5.55;;
73515;SDS011;61763;51.416;5.442;2023-04-15T05:45:54;12.30;;;4.70;;
73515;SDS011;61763;51.416;5.442;2023-04-15T05:48:19;10.50;;;4.70;;
73515;SDS011;61763;51.416;5.442;2023-04-15T05:50:45;11.23;;;4.97;;
73515;SDS011;61763;51.416;5.442;2023-04-15T05:53:11;11.50;;;5.22;;
73515;SDS011;61763;51.416;5.442;2023-04-15T05:55:36;12.80;;;5.00;;
73515;SDS011;61763;51.416;5.442;2023-04-15T05:58:02;11.27;;;4.97;;
73515;SDS011;61763;51.416;5.442;2023-04-15T06:00:29;12.65;;;6.45;;
73515;SDS011;61763;51.416;5.442;2023-04-15T06:02:55;14.57;;;5.88;;
73515;SDS011;61763;51.416;5.442;2023-04-15T06:05:22;11.02;;;5.63;;
73515;SDS011;61763;51.416;5.442;2023-04-15T06:07:48;11.93;;;5.97;;
73515;SDS011;61763;51.416;5.442;2023-04-15T06:10:15;11.48;;;6.10;;
73515;SDS011;61763;51.416;5.442;2023-04-15T06:12:40;13.45;;;6.05;;
73515;SDS011;61763;51.416;5.442;2023-04-15T06:15:06;11.68;;;5.28;;
73515;SDS011;61763;51.416;5.442;2023-04-15T06:17:34;15.45;;;6.07;;
73515;SDS011;61763;51.416;5.442;2023-04-15T06:20:00;13.32;;;5.97;;
73515;SDS011;61763;51.416;5.442;2023-04-15T06:22:25;15.57;;;6.72;;
73515;SDS011;61763;51.416;5.442;2023-04-15T06:24:50;11.40;;;5.70;;
73515;SDS011;61763;51.416;5.442;2023-04-15T06:27:17;11.90;;;5.25;;
73515;SDS011;61763;51.416;5.442;2023-04-15T06:29:43;11.02;;;5.47;;
73515;SDS011;61763;51.416;5.442;2023-04-15T06:32:08;13.45;;;5.85;;
73515;SDS011;61763;51.416;5.442;2023-04-15T06:34:34;13.32;;;6.18;;
73515;SDS011;61763;51.416;5.442;2023-04-15T06:37:00;13.02;;;5.50;;
73515;SDS011;61763;51.416;5.442;2023-04-15T06:39:25;11.32;;;5.72;;
73515;SDS011;61763;51.416;5.442;2023-04-15T06:41:51;10.48;;;5.50;;
73515;SDS011;61763;51.416;5.442;2023-04-15T06:44:16;11.38;;;5.75;;
73515;SDS011;61763;51.416;5.442;2023-04-15T06:46:42;11.52;;;5.13;;
73515;SDS011;61763;51.416;5.442;2023-04-15T06:49:08;9.82;;;4.75;;
73515;SDS011;61763;51.416;5.442;2023-04-15T06:51:34;13.50;;;6.30;;
73515;SDS011;61763;51.416;5.442;2023-04-15T06:54:00;13.63;;;5.40;;
73515;SDS011;61763;51.416;5.442;2023-04-15T06:56:26;9.35;;;4.85;;
73515;SDS011;61763;51.416;5.442;2023-04-15T06:58:53;7.57;;;2.85;;
73515;SDS011;61763;51.416;5.442;2023-04-15T07:01:18;11.00;;;3.90;;
73515;SDS011;61763;51.416;5.442;2023-04-15T07:03:44;9.80;;;4.18;;
73515;SDS011;61763;51.416;5.442;2023-04-15T07:06:10;10.07;;;4.80;;
73515;SDS011;61763;51.416;5.442;2023-04-15T07:08:36;9.27;;;4.85;;
73515;SDS011;61763;51.416;5.442;2023-04-15T07:11:03;9.95;;;5.13;;
73515;SDS011;61763;51.416;5.442;2023-04-15T07:13:30;9.90;;;5.20;;
73515;SDS011;61763;51.416;5.442;2023-04-15T07:15:56;10.20;;;4.70;;
73515;SDS011;61763;51.416;5.442;2023-04-15T07:18:22;11.10;;;5.03;;
73515;SDS011;61763;51.416;5.442;2023-04-15T07:20:48;8.45;;;4.38;;
73515;SDS011;61763;51.416;5.442;2023-04-15T07:23:13;8.15;;;4.90;;
73515;SDS011;61763;51.416;5.442;2023-04-15T07:25:39;10.30;;;4.72;;
73515;SDS011;61763;51.416;5.442;2023-04-15T07:28:04;7.68;;;4.13;;
73515;SDS011;61763;51.416;5.442;2023-04-15T07:30:29;10.38;;;5.13;;
73515;SDS011;61763;51.416;5.442;2023-04-15T07:32:55;9.43;;;4.45;;
73515;SDS011;61763;51.416;5.442;2023-04-15T07:35:20;7.93;;;3.90;;
73515;SDS011;61763;51.416;5.442;2023-04-15T07:37:46;7.40;;;3.13;;
73515;SDS011;61763;51.416;5.442;2023-04-15T07:40:12;8.27;;;3.88;;
73515;SDS011;61763;51.416;5.442;2023-04-15T07:42:38;8.55;;;5.03;;
73515;SDS011;61763;51.416;5.442;2023-04-15T07:45:04;8.15;;;4.10;;
73515;SDS011;61763;51.416;5.442;2023-04-15T07:47:30;7.45;;;3.90;;
73515;SDS011;61763;51.416;5.442;2023-04-15T07:49:56;5.28;;;2.17;;
73515;SDS011;61763;51.416;5.442;2023-04-15T07:52:21;7.35;;;3.33;;
73515;SDS011;61763;51.416;5.442;2023-04-15T07:54:46;6.22;;;3.88;;
73515;SDS011;61763;51.416;5.442;2023-04-15T07:57:12;7.68;;;3.42;;
73515;SDS011;61763;51.416;5.442;2023-04-15T07:59:40;7.40;;;2.55;;
73515;SDS011;61763;51.416;5.442;2023-04-15T08:04:30;6.67;;;3.00;;
73515;SDS011;61763;51.416;5.442;2023-04-15T08:06:57;7.80;;;3.53;;
73515;SDS011;61763;51.416;5.442;2023-04-15T08:09:23;5.43;;;3.05;;
73515;SDS011;61763;51.416;5.442;2023-04-15T08:11:48;4.93;;;2.50;;
73515;SDS011;61763;51.416;5.442;2023-04-15T08:14:15;6.63;;;2.97;;
73515;SDS011;61763;51.416;5.442;2023-04-15T08:16:42;7.93;;;4.05;;
73515;SDS011;61763;51.416;5.442;2023-04-15T08:19:07;5.50;;;2.53;;
73515;SDS011;61763;51.416;5.442;2023-04-15T08:21:33;7.40;;;3.55;;
73515;SDS011;61763;51.416;5.442;2023-04-15T08:23:58;5.95;;;3.70;;
73515;SDS011;61763;51.416;5.442;2023-04-15T08:26:24;6.70;;;3.47;;
73515;SDS011;61763;51.416;5.442;2023-04-15T08:28:50;6.90;;;3.35;;
73515;SDS011;61763;51.416;5.442;2023-04-15T08:31:16;5.65;;;2.92;;
73515;SDS011;61763;51.416;5.442;2023-04-15T08:33:43;5.93;;;3.45;;
73515;SDS011;61763;51.416;5.442;2023-04-15T08:36:09;7.53;;;3.35;;
73515;SDS011;61763;51.416;5.442;2023-04-15T08:38:35;5.13;;;2.83;;
73515;SDS011;61763;51.416;5.442;2023-04-15T08:41:16;7.22;;;3.40;;
73515;SDS011;61763;51.416;5.442;2023-04-15T08:43:48;8.30;;;4.05;;
73515;SDS011;61763;51.416;5.442;2023-04-15T08:46:17;7.97;;;3.33;;
73515;SDS011;61763;51.416;5.442;2023-04-15T08:48:43;8.38;;;3.33;;
73515;SDS011;61763;51.416;5.442;2023-04-15T08:51:12;6.75;;;2.70;;
73515;SDS011;61763;51.416;5.442;2023-04-15T08:53:40;5.15;;;2.28;;
73515;SDS011;61763;51.416;5.442;2023-04-15T08:56:08;7.88;;;2.95;;
73515;SDS011;61763;51.416;5.442;2023-04-15T08:58:36;6.20;;;2.85;;
73515;SDS011;61763;51.416;5.442;2023-04-15T09:01:02;6.32;;;2.95;;
73515;SDS011;61763;51.416;5.442;2023-04-15T09:03:30;6.65;;;2.42;;
73515;SDS011;61763;51.416;5.442;2023-04-15T09:05:57;6.82;;;2.28;;
73515;SDS011;61763;51.416;5.442;2023-04-15T09:08:23;6.10;;;2.00;;
73515;SDS011;61763;51.416;5.442;2023-04-15T09:10:49;5.28;;;2.33;;
73515;SDS011;61763;51.416;5.442;2023-04-15T09:13:14;7.35;;;2.42;;
73515;SDS011;61763;51.416;5.442;2023-04-15T09:15:39;4.68;;;2.40;;
73515;SDS011;61763;51.416;5.442;2023-04-15T09:18:05;4.57;;;2.05;;
73515;SDS011;61763;51.416;5.442;2023-04-15T09:20:37;7.53;;;2.47;;
73515;SDS011;61763;51.416;5.442;2023-04-15T09:23:10;5.85;;;1.85;;
73515;SDS011;61763;51.416;5.442;2023-04-15T09:25:37;6.55;;;2.13;;
73515;SDS011;61763;51.416;5.442;2023-04-15T09:28:04;6.03;;;2.28;;
73515;SDS011;61763;51.416;5.442;2023-04-15T09:30:29;5.10;;;2.20;;
73515;SDS011;61763;51.416;5.442;2023-04-15T09:32:59;4.50;;;2.33;;
73515;SDS011;61763;51.416;5.442;2023-04-15T09:35:26;4.85;;;2.03;;
73515;SDS011;61763;51.416;5.442;2023-04-15T09:37:53;4.80;;;2.55;;
73515;SDS011;61763;51.416;5.442;2023-04-15T09:40:31;5.00;;;1.85;;
73515;SDS011;61763;51.416;5.442;2023-04-15T09:42:58;5.75;;;1.90;;
73515;SDS011;61763;51.416;5.442;2023-04-15T09:45:24;3.72;;;1.77;;
73515;SDS011;61763;51.416;5.442;2023-04-15T09:47:50;4.47;;;1.88;;
73515;SDS011;61763;51.416;5.442;2023-04-15T09:50:17;4.97;;;2.67;;
73515;SDS011;61763;51.416;5.442;2023-04-15T09:52:44;3.65;;;1.77;;
73515;SDS011;61763;51.416;5.442;2023-04-15T09:55:10;4.60;;;1.77;;
73515;SDS011;61763;51.416;5.442;2023-04-15T09:57:37;5.53;;;1.65;;
73515;SDS011;61763;51.416;5.442;2023-04-15T10:00:05;3.50;;;1.45;;
73515;SDS011;61763;51.416;5.442;2023-04-15T10:02:33;4.28;;;1.80;;
73515;SDS011;61763;51.416;5.442;2023-04-15T10:05:00;4.15;;;1.40;;
73515;SDS011;61763;51.416;5.442;2023-04-15T10:07:26;3.50;;;1.55;;
73515;SDS011;61763;51.416;5.442;2023-04-15T10:09:52;5.28;;;1.80;;
73515;SDS011;61763;51.416;5.442;2023-04-15T10:12:18;4.53;;;2.00;;
73515;SDS011;61763;51.416;5.442;2023-04-15T10:14:44;4.22;;;1.95;;
73515;SDS011;61763;51.416;5.442;2023-04-15T10:17:16;4.03;;;1.70;;
73515;SDS011;61763;51.416;5.442;2023-04-15T10:19:42;4.45;;;1.58;;
73515;SDS011;61763;51.416;5.442;2023-04-15T10:22:08;4.22;;;1.70;;
73515;SDS011;61763;51.416;5.442;2023-04-15T10:24:34;3.95;;;1.60;;
73515;SDS011;61763;51.416;5.442;2023-04-15T10:27:02;4.45;;;1.42;;
73515;SDS011;61763;51.416;5.442;2023-04-15T10:29:29;5.82;;;2.38;;
73515;SDS011;61763;51.416;5.442;2023-04-15T10:31:57;4.55;;;2.05;;
73515;SDS011;61763;51.416;5.442;2023-04-15T10:34:24;4.03;;;1.80;;
73515;SDS011;61763;51.416;5.442;2023-04-15T10:36:54;4.03;;;1.15;;
73515;SDS011;61763;51.416;5.442;2023-04-15T10:42:05;4.57;;;1.20;;
73515;SDS011;61763;51.416;5.442;2023-04-15T10:44:32;4.20;;;1.65;;
73515;SDS011;61763;51.416;5.442;2023-04-15T10:46:57;3.67;;;1.63;;
73515;SDS011;61763;51.416;5.442;2023-04-15T10:49:23;3.08;;;1.02;;
73515;SDS011;61763;51.416;5.442;2023-04-15T10:51:50;3.58;;;1.05;;
73515;SDS011;61763;51.416;5.442;2023-04-15T10:56:49;4.30;;;0.90;;
73515;SDS011;61763;51.416;5.442;2023-04-15T10:59:16;2.58;;;0.73;;
73515;SDS011;61763;51.416;5.442;2023-04-15T11:01:52;3.80;;;1.20;;
73515;SDS011;61763;51.416;5.442;2023-04-15T11:07:32;3.25;;;1.42;;
73515;SDS011;61763;51.416;5.442;2023-04-15T11:12:41;3.77;;;1.30;;
73515;SDS011;61763;51.416;5.442;2023-04-15T11:18:22;2.75;;;1.30;;
73515;SDS011;61763;51.416;5.442;2023-04-15T11:20:56;2.40;;;0.60;;
73515;SDS011;61763;51.416;5.442;2023-04-15T11:23:36;2.60;;;0.90;;
73515;SDS011;61763;51.416;5.442;2023-04-15T11:26:04;1.80;;;0.40;;
73515;SDS011;61763;51.416;5.442;2023-04-15T11:28:33;1.70;;;0.52;;
73515;SDS011;61763;51.416;5.442;2023-04-15T11:31:10;2.80;;;1.10;;
73515;SDS011;61763;51.416;5.442;2023-04-15T11:33:37;2.28;;;1.13;;
73515;SDS011;61763;51.416;5.442;2023-04-15T11:36:08;2.92;;;0.90;;
73515;SDS011;61763;51.416;5.442;2023-04-15T11:38:34;2.65;;;0.85;;
73515;SDS011;61763;51.416;5.442;2023-04-15T11:41:00;2.95;;;1.05;;
73515;SDS011;61763;51.416;5.442;2023-04-15T11:43:25;4.10;;;1.48;;
73515;SDS011;61763;51.416;5.442;2023-04-15T11:45:54;3.10;;;1.33;;
73515;SDS011;61763;51.416;5.442;2023-04-15T11:48:42;2.67;;;1.17;;
73515;SDS011;61763;51.416;5.442;2023-04-15T11:51:10;4.65;;;1.25;;
73515;SDS011;61763;51.416;5.442;2023-04-15T11:53:37;2.38;;;1.17;;
73515;SDS011;61763;51.416;5.442;2023-04-15T11:56:09;2.50;;;1.00;;
73515;SDS011;61763;51.416;5.442;2023-04-15T11:58:35;3.88;;;1.35;;
73515;SDS011;61763;51.416;5.442;2023-04-15T12:01:02;2.83;;;0.82;;
73515;SDS011;61763;51.416;5.442;2023-04-15T12:03:29;3.20;;;0.90;;
73515;SDS011;61763;51.416;5.442;2023-04-15T12:06:04;2.45;;;0.90;;
73515;SDS011;61763;51.416;5.442;2023-04-15T12:13:53;2.05;;;0.82;;
73515;SDS011;61763;51.416;5.442;2023-04-15T12:16:20;2.13;;;0.60;;
73515;SDS011;61763;51.416;5.442;2023-04-15T12:18:49;4.28;;;1.48;;
73515;SDS011;61763;51.416;5.442;2023-04-15T12:21:23;3.05;;;1.05;;
73515;SDS011;61763;51.416;5.442;2023-04-15T12:23:54;2.60;;;0.65;;
73515;SDS011;61763;51.416;5.442;2023-04-15T12:26:27;2.28;;;1.10;;
73515;SDS011;61763;51.416;5.442;2023-04-15T12:28:59;2.38;;;0.80;;
73515;SDS011;61763;51.416;5.442;2023-04-15T12:31:25;2.72;;;0.88;;
73515;SDS011;61763;51.416;5.442;2023-04-15T12:33:51;4.97;;;0.82;;
73515;SDS011;61763;51.416;5.442;2023-04-15T12:36:19;2.22;;;0.70;;
73515;SDS011;61763;51.416;5.442;2023-04-15T12:38:45;2.03;;;0.88;;
73515;SDS011;61763;51.416;5.442;2023-04-15T12:41:10;2.45;;;0.75;;
73515;SDS011;61763;51.416;5.442;2023-04-15T12:43:37;3.65;;;0.93;;
73515;SDS011;61763;51.416;5.442;2023-04-15T12:46:02;2.90;;;0.85;;
73515;SDS011;61763;51.416;5.442;2023-04-15T12:48:28;3.25;;;0.80;;
73515;SDS011;61763;51.416;5.442;2023-04-15T12:50:54;3.30;;;1.00;;
73515;SDS011;61763;51.416;5.442;2023-04-15T12:53:20;3.70;;;1.02;;
73515;SDS011;61763;51.416;5.442;2023-04-15T12:55:45;1.80;;;0.70;;
73515;SDS011;61763;51.416;5.442;2023-04-15T12:58:10;2.38;;;0.90;;
73515;SDS011;61763;51.416;5.442;2023-04-15T13:00:36;2.92;;;1.02;;
73515;SDS011;61763;51.416;5.442;2023-04-15T13:03:03;2.15;;;0.90;;
73515;SDS011;61763;51.416;5.442;2023-04-15T13:05:28;4.10;;;1.30;;
73515;SDS011;61763;51.416;5.442;2023-04-15T13:07:54;3.40;;;1.13;;
73515;SDS011;61763;51.416;5.442;2023-04-15T13:10:20;3.97;;;0.75;;
73515;SDS011;61763;51.416;5.442;2023-04-15T13:12:47;3.17;;;0.90;;
73515;SDS011;61763;51.416;5.442;2023-04-15T13:15:14;2.58;;;1.15;;
73515;SDS011;61763;51.416;5.442;2023-04-15T13:17:43;2.78;;;1.10;;
73515;SDS011;61763;51.416;5.442;2023-04-15T13:20:09;4.20;;;0.97;;
73515;SDS011;61763;51.416;5.442;2023-04-15T13:22:34;2.80;;;0.90;;
73515;SDS011;61763;51.416;5.442;2023-04-15T13:25:00;5.03;;;0.73;;
73515;SDS011;61763;51.416;5.442;2023-04-15T13:27:25;2.90;;;0.90;;
73515;SDS011;61763;51.416;5.442;2023-04-15T13:29:51;3.67;;;1.35;;
73515;SDS011;61763;51.416;5.442;2023-04-15T13:32:16;2.65;;;0.75;;
73515;SDS011;61763;51.416;5.442;2023-04-15T13:34:42;2.72;;;0.73;;
73515;SDS011;61763;51.416;5.442;2023-04-15T13:37:07;2.38;;;0.88;;
73515;SDS011;61763;51.416;5.442;2023-04-15T13:39:33;2.03;;;0.43;;
73515;SDS011;61763;51.416;5.442;2023-04-15T13:41:59;2.53;;;0.70;;
73515;SDS011;61763;51.416;5.442;2023-04-15T13:44:25;2.38;;;0.80;;
73515;SDS011;61763;51.416;5.442;2023-04-15T13:46:50;2.70;;;0.57;;
73515;SDS011;61763;51.416;5.442;2023-04-15T13:49:16;2.60;;;0.68;;
73515;SDS011;61763;51.416;5.442;2023-04-15T13:51:42;1.63;;;0.50;;
73515;SDS011;61763;51.416;5.442;2023-04-15T13:54:07;3.63;;;0.63;;
73515;SDS011;61763;51.416;5.442;2023-04-15T13:56:32;1.63;;;0.40;;
73515;SDS011;61763;51.416;5.442;2023-04-15T13:58:58;2.58;;;0.77;;
73515;SDS011;61763;51.416;5.442;2023-04-15T14:01:26;2.92;;;0.73;;
73515;SDS011;61763;51.416;5.442;2023-04-15T14:03:52;3.05;;;0.70;;
73515;SDS011;61763;51.416;5.442;2023-04-15T14:06:17;2.80;;;0.90;;
73515;SDS011;61763;51.416;5.442;2023-04-15T14:08:43;6.03;;;0.75;;
73515;SDS011;61763;51.416;5.442;2023-04-15T14:11:08;1.75;;;0.68;;
73515;SDS011;61763;51.416;5.442;2023-04-15T14:13:34;2.10;;;0.52;;
73515;SDS011;61763;51.416;5.442;2023-04-15T14:16:00;2.70;;;0.70;;
73515;SDS011;61763;51.416;5.442;2023-04-15T14:18:26;1.80;;;0.45;;
73515;SDS011;61763;51.416;5.442;2023-04-15T14:20:51;2.35;;;0.60;;
73515;SDS011;61763;51.416;5.442;2023-04-15T14:23:17;1.70;;;0.47;;
73515;SDS011;61763;51.416;5.442;2023-04-15T14:25:42;2.65;;;0.63;;
73515;SDS011;61763;51.416;5.442;2023-04-15T14:28:08;2.17;;;0.60;;
73515;SDS011;61763;51.416;5.442;2023-04-15T14:30:33;3.72;;;0.50;;
73515;SDS011;61763;51.416;5.442;2023-04-15T14:32:59;2.35;;;0.40;;
73515;SDS011;61763;51.416;5.442;2023-04-15T14:35:24;1.77;;;0.50;;
73515;SDS011;61763;51.416;5.442;2023-04-15T14:37:51;2.40;;;0.60;;
73515;SDS011;61763;51.416;5.442;2023-04-15T14:40:18;1.92;;;0.50;;
73515;SDS011;61763;51.416;5.442;2023-04-15T14:42:43;3.97;;;0.45;;
73515;SDS011;61763;51.416;5.442;2023-04-15T14:45:10;4.35;;;0.73;;
73515;SDS011;61763;51.416;5.442;2023-04-15T14:47:35;1.55;;;0.40;;
73515;SDS011;61763;51.416;5.442;2023-04-15T14:50:01;3.30;;;0.40;;
73515;SDS011;61763;51.416;5.442;2023-04-15T14:52:26;1.65;;;0.40;;
73515;SDS011;61763;51.416;5.442;2023-04-15T14:54:51;2.45;;;0.40;;
73515;SDS011;61763;51.416;5.442;2023-04-15T14:57:17;2.15;;;0.30;;
73515;SDS011;61763;51.416;5.442;2023-04-15T14:59:42;3.25;;;0.50;;
73515;SDS011;61763;51.416;5.442;2023-04-15T15:02:08;2.05;;;0.50;;